HRGA4: Little River, Horatio, AR

                                SHEF ID:       HRGA4     Little River near Horatio, AR
STATION TYPE: Stream Gauge
Regulating: Stage = 21.50, Flow = 17539

PRECIP STAGE RIV-FLOW BAT-LOAD
in ft cfs volt
Ccp-Rev Ccp-Rev Ccp-Rev Ccp-Rev
(America/Chicago)
04/23 00:00 0.00 6.89 1515 12.56
04/23 01:00 0.00 6.82 1468 12.54
04/23 02:00 0.00 6.75 1422 12.53
04/23 03:00 0.00 6.68 1377 12.50
04/23 04:00 0.00 6.61 1332 12.48
04/23 05:00 0.00 6.55 1293 12.45
04/23 06:00 0.00 6.49 1256 12.43
04/23 07:00 0.00 6.44 1224 12.39
04/23 08:00 0.00 6.39 1193 12.40
04/23 09:00 0.00 6.35 1168 12.45
04/23 10:00 0.00 6.30 1138 12.83
04/23 11:00 0.00 6.25 1107 13.28
04/23 12:00 0.00 6.24 1101 13.29
04/23 13:00 0.00 6.18 1065 13.07
04/23 14:00 0.00 6.15 1047 13.00
04/23 15:00 0.00 6.14 1042 12.93
04/23 16:00 0.00 6.12 1030 12.89
04/23 17:00 0.00 6.08 1006 12.87
04/23 18:00 0.00 6.07 1000 12.85
04/23 19:00 0.00 6.07 1000 12.81
04/23 20:00 0.00 6.05 989 12.79
04/23 21:00 0.00 6.03 977 12.65
04/23 22:00 0.00 6.01 965 12.60
04/23 23:00 0.00 6.00 960 12.58
Data processed at Fri 24Apr2026 04:10 GMT

NOTICE: If you are parsing this page

Please convert to using our Data API. Starting early 2026 we will be migrating to: https://water.usace.army.mil with modern pages rendered in JavaScript. When this migration completes you will no longer be able to scrape this page! CWMSDataAPI (CDA)

Timeseries IDs (TSIDs)

TSIDs used from left to right in the data table
HORA.Precip-Inc.Total.1Hour.1Hour.Ccp-Rev
HORA.Stage.Inst.1Hour.0.Ccp-Rev
HORA.Flow.Inst.1Hour.0.Ccp-Rev
HORA.Volt-Battery Load.Inst.1Hour.0.Ccp-Rev

                            

All information presented herein is the property of the government of the United States of America and may be revised or deleted at any time without prior notice. Dissemination of this information without the expressed written consent of the Public Affairs Office, Tulsa District U.S. Army Corps of Engineers is strictly prohibited. These data are gathered electronically and, as presented, have NOT undergone any form of quality control. These data are NOT guaranteed to be valid or correct.